sensor_id;sensor_type;location;lat;lon;timestamp;temperature;humidity
17092;DHT22;8661;45.700;4.880;2023-03-23T00:01:24;15.10;99.50
17092;DHT22;8661;45.700;4.880;2023-03-23T00:03:53;15.10;99.50
17092;DHT22;8661;45.700;4.880;2023-03-23T00:06:23;15.10;99.50
17092;DHT22;8661;45.700;4.880;2023-03-23T00:08:53;15.00;99.40
17092;DHT22;8661;45.700;4.880;2023-03-23T00:11:26;15.10;99.70
17092;DHT22;8661;45.700;4.880;2023-03-23T00:13:55;15.00;99.50
17092;DHT22;8661;45.700;4.880;2023-03-23T00:16:27;15.00;99.90
17092;DHT22;8661;45.700;4.880;2023-03-23T00:18:57;15.00;99.70
17092;DHT22;8661;45.700;4.880;2023-03-23T00:21:26;14.90;99.60
17092;DHT22;8661;45.700;4.880;2023-03-23T00:24:02;14.90;99.70
17092;DHT22;8661;45.700;4.880;2023-03-23T00:26:29;14.80;99.90
17092;DHT22;8661;45.700;4.880;2023-03-23T00:28:59;14.80;99.90
17092;DHT22;8661;45.700;4.880;2023-03-23T00:31:27;14.80;99.90
17092;DHT22;8661;45.700;4.880;2023-03-23T00:33:57;14.80;99.80
17092;DHT22;8661;45.700;4.880;2023-03-23T00:36:27;14.70;99.90
17092;DHT22;8661;45.700;4.880;2023-03-23T00:38:54;14.70;99.60
17092;DHT22;8661;45.700;4.880;2023-03-23T00:41:26;14.70;99.50
17092;DHT22;8661;45.700;4.880;2023-03-23T00:43:54;14.60;99.20
17092;DHT22;8661;45.700;4.880;2023-03-23T00:46:21;14.60;99.10
17092;DHT22;8661;45.700;4.880;2023-03-23T00:48:48;14.60;98.90
17092;DHT22;8661;45.700;4.880;2023-03-23T00:51:18;14.60;98.80
17092;DHT22;8661;45.700;4.880;2023-03-23T00:53:46;14.60;99.00
17092;DHT22;8661;45.700;4.880;2023-03-23T00:56:13;14.50;98.90
17092;DHT22;8661;45.700;4.880;2023-03-23T00:58:42;14.50;98.40
17092;DHT22;8661;45.700;4.880;2023-03-23T01:01:09;14.50;98.40
17092;DHT22;8661;45.700;4.880;2023-03-23T01:03:36;14.40;98.30
17092;DHT22;8661;45.700;4.880;2023-03-23T01:06:06;14.40;98.10
17092;DHT22;8661;45.700;4.880;2023-03-23T01:08:34;14.40;98.00
17092;DHT22;8661;45.700;4.880;2023-03-23T01:11:03;14.40;98.30
17092;DHT22;8661;45.700;4.880;2023-03-23T01:13:31;14.40;97.80
17092;DHT22;8661;45.700;4.880;2023-03-23T01:15:59;14.40;97.70
17092;DHT22;8661;45.700;4.880;2023-03-23T01:18:26;14.30;97.40
17092;DHT22;8661;45.700;4.880;2023-03-23T01:20:53;14.30;97.20
17092;DHT22;8661;45.700;4.880;2023-03-23T01:23:20;14.30;97.40
17092;DHT22;8661;45.700;4.880;2023-03-23T01:25:46;14.30;96.80
17092;DHT22;8661;45.700;4.880;2023-03-23T01:28:14;14.30;96.70
17092;DHT22;8661;45.700;4.880;2023-03-23T01:30:41;14.30;96.60
17092;DHT22;8661;45.700;4.880;2023-03-23T01:33:10;14.30;96.50
17092;DHT22;8661;45.700;4.880;2023-03-23T01:35:37;14.30;96.40
17092;DHT22;8661;45.700;4.880;2023-03-23T01:38:04;14.20;96.30
17092;DHT22;8661;45.700;4.880;2023-03-23T01:40:31;14.20;96.20
17092;DHT22;8661;45.700;4.880;2023-03-23T01:42:58;14.20;96.10
17092;DHT22;8661;45.700;4.880;2023-03-23T01:45:29;14.20;96.00
17092;DHT22;8661;45.700;4.880;2023-03-23T01:48:11;14.20;96.00
17092;DHT22;8661;45.700;4.880;2023-03-23T01:50:45;14.20;95.40
17092;DHT22;8661;45.700;4.880;2023-03-23T01:53:13;14.20;95.20
17092;DHT22;8661;45.700;4.880;2023-03-23T01:55:41;14.20;95.10
17092;DHT22;8661;45.700;4.880;2023-03-23T01:58:11;14.20;94.90
17092;DHT22;8661;45.700;4.880;2023-03-23T02:00:38;14.20;94.80
17092;DHT22;8661;45.700;4.880;2023-03-23T02:03:08;14.20;94.70
17092;DHT22;8661;45.700;4.880;2023-03-23T02:05:41;14.20;94.70
17092;DHT22;8661;45.700;4.880;2023-03-23T02:08:09;14.30;94.70
17092;DHT22;8661;45.700;4.880;2023-03-23T02:10:37;14.30;94.70
17092;DHT22;8661;45.700;4.880;2023-03-23T02:13:06;14.30;95.00
17092;DHT22;8661;45.700;4.880;2023-03-23T02:15:40;14.30;94.60
17092;DHT22;8661;45.700;4.880;2023-03-23T02:18:15;14.30;94.60
17092;DHT22;8661;45.700;4.880;2023-03-23T02:27:00;14.30;94.60
17092;DHT22;8661;45.700;4.880;2023-03-23T02:29:50;14.30;94.50
17092;DHT22;8661;45.700;4.880;2023-03-23T02:35:38;14.30;94.50
17092;DHT22;8661;45.700;4.880;2023-03-23T02:38:09;14.30;94.50
17092;DHT22;8661;45.700;4.880;2023-03-23T02:40:41;14.30;94.50
17092;DHT22;8661;45.700;4.880;2023-03-23T02:43:13;14.20;94.40
17092;DHT22;8661;45.700;4.880;2023-03-23T02:45:43;14.20;94.40
17092;DHT22;8661;45.700;4.880;2023-03-23T02:48:13;14.20;94.40
17092;DHT22;8661;45.700;4.880;2023-03-23T02:50:44;14.20;94.40
17092;DHT22;8661;45.700;4.880;2023-03-23T02:53:15;14.30;94.30
17092;DHT22;8661;45.700;4.880;2023-03-23T02:55:43;14.20;94.20
17092;DHT22;8661;45.700;4.880;2023-03-23T02:58:11;14.30;94.60
17092;DHT22;8661;45.700;4.880;2023-03-23T03:00:38;14.30;94.20
17092;DHT22;8661;45.700;4.880;2023-03-23T03:03:07;14.30;94.10
17092;DHT22;8661;45.700;4.880;2023-03-23T03:05:42;14.30;94.10
17092;DHT22;8661;45.700;4.880;2023-03-23T03:08:15;14.30;94.10
17092;DHT22;8661;45.700;4.880;2023-03-23T03:10:50;14.20;94.00
17092;DHT22;8661;45.700;4.880;2023-03-23T03:13:29;14.30;94.00
17092;DHT22;8661;45.700;4.880;2023-03-23T03:16:01;14.30;93.80
17092;DHT22;8661;45.700;4.880;2023-03-23T03:18:34;14.30;93.70
17092;DHT22;8661;45.700;4.880;2023-03-23T03:21:07;14.30;93.60
17092;DHT22;8661;45.700;4.880;2023-03-23T03:23:39;14.30;93.50
17092;DHT22;8661;45.700;4.880;2023-03-23T03:26:07;14.30;93.40
17092;DHT22;8661;45.700;4.880;2023-03-23T03:28:36;14.30;93.40
17092;DHT22;8661;45.700;4.880;2023-03-23T03:31:04;14.30;93.20
17092;DHT22;8661;45.700;4.880;2023-03-23T03:33:32;14.30;93.20
17092;DHT22;8661;45.700;4.880;2023-03-23T03:36:02;14.30;93.10
17092;DHT22;8661;45.700;4.880;2023-03-23T03:38:41;14.30;92.90
17092;DHT22;8661;45.700;4.880;2023-03-23T03:41:08;14.40;92.80
17092;DHT22;8661;45.700;4.880;2023-03-23T03:43:35;14.40;92.80
17092;DHT22;8661;45.700;4.880;2023-03-23T03:46:02;14.40;92.60
17092;DHT22;8661;45.700;4.880;2023-03-23T03:48:29;14.40;92.40
17092;DHT22;8661;45.700;4.880;2023-03-23T03:50:55;14.40;92.20
17092;DHT22;8661;45.700;4.880;2023-03-23T03:53:23;14.40;92.10
17092;DHT22;8661;45.700;4.880;2023-03-23T03:55:51;14.40;91.90
17092;DHT22;8661;45.700;4.880;2023-03-23T03:58:20;14.40;91.90
17092;DHT22;8661;45.700;4.880;2023-03-23T04:00:48;14.40;91.90
17092;DHT22;8661;45.700;4.880;2023-03-23T04:03:15;14.50;91.70
17092;DHT22;8661;45.700;4.880;2023-03-23T04:05:43;14.40;91.70
17092;DHT22;8661;45.700;4.880;2023-03-23T04:08:10;14.40;91.70
17092;DHT22;8661;45.700;4.880;2023-03-23T04:10:37;14.40;91.60
17092;DHT22;8661;45.700;4.880;2023-03-23T04:13:06;14.40;91.60
17092;DHT22;8661;45.700;4.880;2023-03-23T04:15:33;14.40;91.60
17092;DHT22;8661;45.700;4.880;2023-03-23T04:17:59;14.40;91.70
17092;DHT22;8661;45.700;4.880;2023-03-23T04:20:26;14.40;91.90
17092;DHT22;8661;45.700;4.880;2023-03-23T04:22:53;14.40;91.50
17092;DHT22;8661;45.700;4.880;2023-03-23T04:25:20;14.40;91.50
17092;DHT22;8661;45.700;4.880;2023-03-23T04:27:48;14.40;91.40
17092;DHT22;8661;45.700;4.880;2023-03-23T04:30:20;14.40;91.40
17092;DHT22;8661;45.700;4.880;2023-03-23T04:32:48;14.40;91.30
17092;DHT22;8661;45.700;4.880;2023-03-23T04:35:19;14.50;91.30
17092;DHT22;8661;45.700;4.880;2023-03-23T04:37:47;14.50;91.20
17092;DHT22;8661;45.700;4.880;2023-03-23T04:40:16;14.50;91.10
17092;DHT22;8661;45.700;4.880;2023-03-23T04:42:43;14.50;91.00
17092;DHT22;8661;45.700;4.880;2023-03-23T04:45:14;14.50;91.00
17092;DHT22;8661;45.700;4.880;2023-03-23T04:47:49;14.50;91.00
17092;DHT22;8661;45.700;4.880;2023-03-23T04:50:20;14.50;90.90
17092;DHT22;8661;45.700;4.880;2023-03-23T04:52:47;14.50;90.90
17092;DHT22;8661;45.700;4.880;2023-03-23T04:55:14;14.50;90.90
17092;DHT22;8661;45.700;4.880;2023-03-23T04:57:41;14.40;90.90
17092;DHT22;8661;45.700;4.880;2023-03-23T05:00:09;14.40;91.00
17092;DHT22;8661;45.700;4.880;2023-03-23T05:02:40;14.40;91.10
17092;DHT22;8661;45.700;4.880;2023-03-23T05:05:09;14.40;91.10
17092;DHT22;8661;45.700;4.880;2023-03-23T05:07:37;14.40;91.10
17092;DHT22;8661;45.700;4.880;2023-03-23T05:10:06;14.40;91.00
17092;DHT22;8661;45.700;4.880;2023-03-23T05:12:34;14.40;91.10
17092;DHT22;8661;45.700;4.880;2023-03-23T05:15:01;14.40;91.00
17092;DHT22;8661;45.700;4.880;2023-03-23T05:17:28;14.40;91.10
17092;DHT22;8661;45.700;4.880;2023-03-23T05:19:55;14.30;91.00
17092;DHT22;8661;45.700;4.880;2023-03-23T05:22:26;14.30;91.00
17092;DHT22;8661;45.700;4.880;2023-03-23T05:24:53;14.40;91.10
17092;DHT22;8661;45.700;4.880;2023-03-23T05:27:20;14.30;91.00
17092;DHT22;8661;45.700;4.880;2023-03-23T05:29:47;14.40;91.10
17092;DHT22;8661;45.700;4.880;2023-03-23T05:32:15;14.40;91.30
17092;DHT22;8661;45.700;4.880;2023-03-23T05:34:45;14.30;91.30
17092;DHT22;8661;45.700;4.880;2023-03-23T05:37:12;14.30;91.40
17092;DHT22;8661;45.700;4.880;2023-03-23T05:39:43;14.30;91.40
17092;DHT22;8661;45.700;4.880;2023-03-23T05:42:12;14.30;91.40
17092;DHT22;8661;45.700;4.880;2023-03-23T05:44:39;14.30;91.50
17092;DHT22;8661;45.700;4.880;2023-03-23T05:47:06;14.30;91.60
17092;DHT22;8661;45.700;4.880;2023-03-23T05:49:33;14.30;91.60
17092;DHT22;8661;45.700;4.880;2023-03-23T05:52:01;14.30;91.60
17092;DHT22;8661;45.700;4.880;2023-03-23T05:54:28;14.30;91.70
17092;DHT22;8661;45.700;4.880;2023-03-23T05:56:57;14.30;91.60
17092;DHT22;8661;45.700;4.880;2023-03-23T05:59:24;14.30;91.70
17092;DHT22;8661;45.700;4.880;2023-03-23T06:01:51;14.30;91.90
17092;DHT22;8661;45.700;4.880;2023-03-23T06:04:19;14.20;91.90
17092;DHT22;8661;45.700;4.880;2023-03-23T06:06:46;14.20;92.00
17092;DHT22;8661;45.700;4.880;2023-03-23T06:09:13;14.30;92.00
17092;DHT22;8661;45.700;4.880;2023-03-23T06:11:40;14.30;92.00
17092;DHT22;8661;45.700;4.880;2023-03-23T06:14:08;14.30;91.90
17092;DHT22;8661;45.700;4.880;2023-03-23T06:16:35;14.30;92.00
17092;DHT22;8661;45.700;4.880;2023-03-23T06:19:02;14.30;92.10
17092;DHT22;8661;45.700;4.880;2023-03-23T06:21:29;14.30;92.00
17092;DHT22;8661;45.700;4.880;2023-03-23T06:23:56;14.40;92.00
17092;DHT22;8661;45.700;4.880;2023-03-23T06:26:28;14.40;92.00
17092;DHT22;8661;45.700;4.880;2023-03-23T06:28:57;14.40;92.10
17092;DHT22;8661;45.700;4.880;2023-03-23T06:31:27;14.40;92.50
17092;DHT22;8661;45.700;4.880;2023-03-23T06:33:54;14.40;92.00
17092;DHT22;8661;45.700;4.880;2023-03-23T06:36:22;14.50;91.90
17092;DHT22;8661;45.700;4.880;2023-03-23T06:38:49;14.50;91.80
17092;DHT22;8661;45.700;4.880;2023-03-23T06:41:16;14.50;91.80
17092;DHT22;8661;45.700;4.880;2023-03-23T06:43:43;14.50;91.80
17092;DHT22;8661;45.700;4.880;2023-03-23T06:46:11;14.50;92.00
17092;DHT22;8661;45.700;4.880;2023-03-23T06:48:39;14.50;92.40
17092;DHT22;8661;45.700;4.880;2023-03-23T06:51:07;14.50;92.10
17092;DHT22;8661;45.700;4.880;2023-03-23T06:53:33;14.60;92.10
17092;DHT22;8661;45.700;4.880;2023-03-23T06:56:00;14.60;92.20
17092;DHT22;8661;45.700;4.880;2023-03-23T06:58:27;14.60;92.20
17092;DHT22;8661;45.700;4.880;2023-03-23T07:00:55;14.60;92.20
17092;DHT22;8661;45.700;4.880;2023-03-23T07:03:23;14.70;92.20
17092;DHT22;8661;45.700;4.880;2023-03-23T07:05:55;14.80;92.20
17092;DHT22;8661;45.700;4.880;2023-03-23T07:08:22;14.70;92.20
17092;DHT22;8661;45.700;4.880;2023-03-23T07:10:51;14.80;92.20
17092;DHT22;8661;45.700;4.880;2023-03-23T07:13:19;14.80;92.30
17092;DHT22;8661;45.700;4.880;2023-03-23T07:15:46;14.90;92.30
17092;DHT22;8661;45.700;4.880;2023-03-23T07:18:14;14.90;92.30
17092;DHT22;8661;45.700;4.880;2023-03-23T07:20:41;15.00;92.20
17092;DHT22;8661;45.700;4.880;2023-03-23T07:23:09;15.20;92.10
17092;DHT22;8661;45.700;4.880;2023-03-23T07:25:36;15.30;92.00
17092;DHT22;8661;45.700;4.880;2023-03-23T07:28:04;15.50;91.70
17092;DHT22;8661;45.700;4.880;2023-03-23T07:30:32;15.60;91.50
17092;DHT22;8661;45.700;4.880;2023-03-23T07:33:03;15.60;91.20
17092;DHT22;8661;45.700;4.880;2023-03-23T07:35:30;15.70;91.30
17092;DHT22;8661;45.700;4.880;2023-03-23T07:37:57;15.80;91.10
17092;DHT22;8661;45.700;4.880;2023-03-23T07:40:25;16.00;91.00
17092;DHT22;8661;45.700;4.880;2023-03-23T07:42:55;16.10;91.00
17092;DHT22;8661;45.700;4.880;2023-03-23T07:45:23;16.10;91.10
17092;DHT22;8661;45.700;4.880;2023-03-23T07:47:50;16.10;91.10
17092;DHT22;8661;45.700;4.880;2023-03-23T07:50:18;16.20;91.20
17092;DHT22;8661;45.700;4.880;2023-03-23T07:52:48;16.30;90.80
17092;DHT22;8661;45.700;4.880;2023-03-23T07:55:15;16.10;90.80
17092;DHT22;8661;45.700;4.880;2023-03-23T07:57:45;16.00;91.00
17092;DHT22;8661;45.700;4.880;2023-03-23T08:00:14;15.90;91.20
17092;DHT22;8661;45.700;4.880;2023-03-23T08:02:44;15.80;91.40
17092;DHT22;8661;45.700;4.880;2023-03-23T08:05:11;15.80;91.60
17092;DHT22;8661;45.700;4.880;2023-03-23T08:07:39;15.80;91.70
17092;DHT22;8661;45.700;4.880;2023-03-23T08:10:08;15.90;91.80
17092;DHT22;8661;45.700;4.880;2023-03-23T08:12:37;16.00;91.20
17092;DHT22;8661;45.700;4.880;2023-03-23T08:15:06;16.20;91.10
17092;DHT22;8661;45.700;4.880;2023-03-23T08:17:34;16.30;91.00
17092;DHT22;8661;45.700;4.880;2023-03-23T08:20:02;16.40;90.70
17092;DHT22;8661;45.700;4.880;2023-03-23T08:22:38;16.50;90.70
17092;DHT22;8661;45.700;4.880;2023-03-23T08:25:07;16.60;91.00
17092;DHT22;8661;45.700;4.880;2023-03-23T08:27:34;16.60;90.50
17092;DHT22;8661;45.700;4.880;2023-03-23T08:30:03;16.40;90.70
17092;DHT22;8661;45.700;4.880;2023-03-23T08:32:34;16.40;91.00
17092;DHT22;8661;45.700;4.880;2023-03-23T08:35:01;16.30;90.90
17092;DHT22;8661;45.700;4.880;2023-03-23T08:37:29;16.30;91.00
17092;DHT22;8661;45.700;4.880;2023-03-23T08:39:56;16.20;91.00
17092;DHT22;8661;45.700;4.880;2023-03-23T08:42:23;16.20;91.00
17092;DHT22;8661;45.700;4.880;2023-03-23T08:44:51;16.30;91.10
17092;DHT22;8661;45.700;4.880;2023-03-23T08:47:18;16.40;90.50
17092;DHT22;8661;45.700;4.880;2023-03-23T08:49:46;16.50;90.30
17092;DHT22;8661;45.700;4.880;2023-03-23T08:52:18;16.50;90.30
17092;DHT22;8661;45.700;4.880;2023-03-23T08:54:45;16.40;90.10
17092;DHT22;8661;45.700;4.880;2023-03-23T08:57:13;16.40;90.00
17092;DHT22;8661;45.700;4.880;2023-03-23T08:59:41;16.50;90.00
17092;DHT22;8661;45.700;4.880;2023-03-23T09:02:09;16.60;90.30
17092;DHT22;8661;45.700;4.880;2023-03-23T09:04:37;16.70;90.10
17092;DHT22;8661;45.700;4.880;2023-03-23T09:07:05;16.80;89.30
17092;DHT22;8661;45.700;4.880;2023-03-23T09:09:33;16.80;88.90
17092;DHT22;8661;45.700;4.880;2023-03-23T09:12:00;16.90;88.70
17092;DHT22;8661;45.700;4.880;2023-03-23T09:14:27;17.10;88.20
17092;DHT22;8661;45.700;4.880;2023-03-23T09:16:54;17.10;88.10
17092;DHT22;8661;45.700;4.880;2023-03-23T09:19:21;17.20;87.80
17092;DHT22;8661;45.700;4.880;2023-03-23T09:21:48;17.40;88.10
17092;DHT22;8661;45.700;4.880;2023-03-23T09:24:17;17.50;87.20
17092;DHT22;8661;45.700;4.880;2023-03-23T09:26:44;17.80;86.70
17092;DHT22;8661;45.700;4.880;2023-03-23T09:29:12;18.00;87.20
17092;DHT22;8661;45.700;4.880;2023-03-23T09:31:39;18.00;86.10
17092;DHT22;8661;45.700;4.880;2023-03-23T09:34:08;18.00;85.80
17092;DHT22;8661;45.700;4.880;2023-03-23T09:36:35;17.90;85.90
17092;DHT22;8661;45.700;4.880;2023-03-23T09:39:04;17.80;86.80
17092;DHT22;8661;45.700;4.880;2023-03-23T09:44:35;17.40;88.00
17092;DHT22;8661;45.700;4.880;2023-03-23T09:47:13;17.40;88.10
17092;DHT22;8661;45.700;4.880;2023-03-23T09:49:44;17.40;87.90
17092;DHT22;8661;45.700;4.880;2023-03-23T09:52:18;17.20;88.50
17092;DHT22;8661;45.700;4.880;2023-03-23T09:54:47;17.30;90.20
17092;DHT22;8661;45.700;4.880;2023-03-23T09:57:23;17.30;89.40
17092;DHT22;8661;45.700;4.880;2023-03-23T09:59:57;17.50;88.60
17092;DHT22;8661;45.700;4.880;2023-03-23T10:02:32;17.80;87.60
17092;DHT22;8661;45.700;4.880;2023-03-23T10:05:16;18.00;86.80
17092;DHT22;8661;45.700;4.880;2023-03-23T10:07:44;18.10;86.20
17092;DHT22;8661;45.700;4.880;2023-03-23T10:10:13;18.10;86.60
17092;DHT22;8661;45.700;4.880;2023-03-23T10:12:45;18.10;86.50
17092;DHT22;8661;45.700;4.880;2023-03-23T10:15:17;18.10;86.60
17092;DHT22;8661;45.700;4.880;2023-03-23T10:17:47;18.10;86.10
17092;DHT22;8661;45.700;4.880;2023-03-23T10:20:34;18.00;86.10
17092;DHT22;8661;45.700;4.880;2023-03-23T10:23:13;17.90;85.60
17092;DHT22;8661;45.700;4.880;2023-03-23T10:25:43;17.60;86.90
17092;DHT22;8661;45.700;4.880;2023-03-23T10:28:17;17.50;86.40
17092;DHT22;8661;45.700;4.880;2023-03-23T10:30:48;17.40;86.60
17092;DHT22;8661;45.700;4.880;2023-03-23T10:33:18;17.30;86.90
17092;DHT22;8661;45.700;4.880;2023-03-23T10:35:50;17.40;87.20
17092;DHT22;8661;45.700;4.880;2023-03-23T10:38:22;17.50;88.30
17092;DHT22;8661;45.700;4.880;2023-03-23T10:40:54;17.50;87.10
17092;DHT22;8661;45.700;4.880;2023-03-23T10:43:23;17.40;87.60
17092;DHT22;8661;45.700;4.880;2023-03-23T10:45:57;17.30;88.10
17092;DHT22;8661;45.700;4.880;2023-03-23T10:48:30;17.30;88.80
17092;DHT22;8661;45.700;4.880;2023-03-23T10:50:59;17.50;90.20
17092;DHT22;8661;45.700;4.880;2023-03-23T10:53:31;17.60;91.50
17092;DHT22;8661;45.700;4.880;2023-03-23T10:55:59;17.60;91.50
17092;DHT22;8661;45.700;4.880;2023-03-23T10:58:29;17.40;91.50
17092;DHT22;8661;45.700;4.880;2023-03-23T11:00:58;17.50;91.50
17092;DHT22;8661;45.700;4.880;2023-03-23T11:03:41;17.50;91.30
17092;DHT22;8661;45.700;4.880;2023-03-23T11:06:11;17.40;91.30
17092;DHT22;8661;45.700;4.880;2023-03-23T11:08:48;17.40;91.40
17092;DHT22;8661;45.700;4.880;2023-03-23T11:11:17;17.50;91.50
17092;DHT22;8661;45.700;4.880;2023-03-23T11:13:48;17.50;91.40
17092;DHT22;8661;45.700;4.880;2023-03-23T11:16:24;17.50;91.50
17092;DHT22;8661;45.700;4.880;2023-03-23T11:18:51;17.50;91.70
17092;DHT22;8661;45.700;4.880;2023-03-23T11:21:20;17.40;91.20
17092;DHT22;8661;45.700;4.880;2023-03-23T11:23:51;17.40;92.00
17092;DHT22;8661;45.700;4.880;2023-03-23T11:26:22;17.30;92.90
17092;DHT22;8661;45.700;4.880;2023-03-23T11:28:57;17.10;93.80
17092;DHT22;8661;45.700;4.880;2023-03-23T11:31:28;16.80;95.10
17092;DHT22;8661;45.700;4.880;2023-03-23T11:33:58;16.60;96.20
17092;DHT22;8661;45.700;4.880;2023-03-23T11:36:33;16.50;96.70
17092;DHT22;8661;45.700;4.880;2023-03-23T11:39:22;16.40;97.40
17092;DHT22;8661;45.700;4.880;2023-03-23T11:41:49;16.30;97.80
17092;DHT22;8661;45.700;4.880;2023-03-23T11:44:22;16.30;98.20
17092;DHT22;8661;45.700;4.880;2023-03-23T11:46:58;16.10;98.10
17092;DHT22;8661;45.700;4.880;2023-03-23T11:49:37;16.10;99.10
17092;DHT22;8661;45.700;4.880;2023-03-23T11:52:11;15.90;99.90
17092;DHT22;8661;45.700;4.880;2023-03-23T11:54:43;15.90;99.90
17092;DHT22;8661;45.700;4.880;2023-03-23T11:57:13;15.90;99.90
17092;DHT22;8661;45.700;4.880;2023-03-23T11:59:42;15.90;99.90
17092;DHT22;8661;45.700;4.880;2023-03-23T12:02:30;16.00;99.90
17092;DHT22;8661;45.700;4.880;2023-03-23T12:08:15;15.90;99.90
17092;DHT22;8661;45.700;4.880;2023-03-23T12:10:47;16.00;99.90
17092;DHT22;8661;45.700;4.880;2023-03-23T12:13:34;16.10;99.90
17092;DHT22;8661;45.700;4.880;2023-03-23T12:16:14;16.10;99.90
17092;DHT22;8661;45.700;4.880;2023-03-23T12:18:50;16.20;99.90
17092;DHT22;8661;45.700;4.880;2023-03-23T12:21:25;16.30;99.90
17092;DHT22;8661;45.700;4.880;2023-03-23T12:24:00;16.30;99.90
17092;DHT22;8661;45.700;4.880;2023-03-23T12:26:30;16.50;99.90
17092;DHT22;8661;45.700;4.880;2023-03-23T12:32:00;16.90;99.90
17092;DHT22;8661;45.700;4.880;2023-03-23T12:34:39;17.10;99.90
17092;DHT22;8661;45.700;4.880;2023-03-23T12:37:28;17.20;98.70
17092;DHT22;8661;45.700;4.880;2023-03-23T12:43:15;17.50;97.30
17092;DHT22;8661;45.700;4.880;2023-03-23T12:45:55;17.60;96.90
17092;DHT22;8661;45.700;4.880;2023-03-23T12:48:28;17.70;96.10
17092;DHT22;8661;45.700;4.880;2023-03-23T12:51:12;17.70;95.60
17092;DHT22;8661;45.700;4.880;2023-03-23T12:53:47;17.80;95.50
17092;DHT22;8661;45.700;4.880;2023-03-23T12:56:19;17.80;95.70
17092;DHT22;8661;45.700;4.880;2023-03-23T12:58:50;17.80;95.00
17092;DHT22;8661;45.700;4.880;2023-03-23T13:01:20;17.90;95.00
17092;DHT22;8661;45.700;4.880;2023-03-23T13:03:53;18.00;95.20
17092;DHT22;8661;45.700;4.880;2023-03-23T13:06:27;18.10;94.40
17092;DHT22;8661;45.700;4.880;2023-03-23T13:09:00;18.30;94.30
17092;DHT22;8661;45.700;4.880;2023-03-23T13:11:33;18.40;94.00
17092;DHT22;8661;45.700;4.880;2023-03-23T13:14:11;18.50;93.20
17092;DHT22;8661;45.700;4.880;2023-03-23T13:16:44;18.50;93.00
17092;DHT22;8661;45.700;4.880;2023-03-23T13:19:19;18.50;93.00
17092;DHT22;8661;45.700;4.880;2023-03-23T13:21:53;18.60;92.80
17092;DHT22;8661;45.700;4.880;2023-03-23T13:24:26;18.60;92.60
17092;DHT22;8661;45.700;4.880;2023-03-23T13:26:54;18.80;92.80
17092;DHT22;8661;45.700;4.880;2023-03-23T13:29:23;19.20;92.00
17092;DHT22;8661;45.700;4.880;2023-03-23T13:32:04;19.40;91.70
17092;DHT22;8661;45.700;4.880;2023-03-23T13:34:34;19.40;91.30
17092;DHT22;8661;45.700;4.880;2023-03-23T13:37:03;19.40;91.30
17092;DHT22;8661;45.700;4.880;2023-03-23T13:39:32;19.40;91.00
17092;DHT22;8661;45.700;4.880;2023-03-23T13:42:03;19.40;90.90
17092;DHT22;8661;45.700;4.880;2023-03-23T13:44:43;19.70;90.70
17092;DHT22;8661;45.700;4.880;2023-03-23T13:47:25;20.00;89.30
17092;DHT22;8661;45.700;4.880;2023-03-23T13:49:57;20.20;88.60
17092;DHT22;8661;45.700;4.880;2023-03-23T13:52:37;20.30;88.30
17092;DHT22;8661;45.700;4.880;2023-03-23T13:58:22;20.40;87.60
17092;DHT22;8661;45.700;4.880;2023-03-23T14:01:02;20.40;87.50
17092;DHT22;8661;45.700;4.880;2023-03-23T14:03:35;20.40;87.80
17092;DHT22;8661;45.700;4.880;2023-03-23T14:06:06;20.30;88.10
17092;DHT22;8661;45.700;4.880;2023-03-23T14:08:39;20.30;88.10
17092;DHT22;8661;45.700;4.880;2023-03-23T14:11:15;20.20;88.50
17092;DHT22;8661;45.700;4.880;2023-03-23T14:13:47;20.10;88.80
17092;DHT22;8661;45.700;4.880;2023-03-23T14:16:19;20.10;88.60
17092;DHT22;8661;45.700;4.880;2023-03-23T14:18:52;20.10;88.70
17092;DHT22;8661;45.700;4.880;2023-03-23T14:21:33;20.10;88.50
17092;DHT22;8661;45.700;4.880;2023-03-23T14:24:02;20.10;88.30
17092;DHT22;8661;45.700;4.880;2023-03-23T14:26:33;20.20;88.60
17092;DHT22;8661;45.700;4.880;2023-03-23T14:29:02;20.40;88.70
17092;DHT22;8661;45.700;4.880;2023-03-23T14:31:30;20.40;87.60
17092;DHT22;8661;45.700;4.880;2023-03-23T14:34:02;20.40;87.70
17092;DHT22;8661;45.700;4.880;2023-03-23T14:36:31;20.40;87.10
17092;DHT22;8661;45.700;4.880;2023-03-23T14:39:04;20.40;87.50
17092;DHT22;8661;45.700;4.880;2023-03-23T14:41:34;20.50;87.50
17092;DHT22;8661;45.700;4.880;2023-03-23T14:44:03;20.50;86.60
17092;DHT22;8661;45.700;4.880;2023-03-23T14:46:32;20.30;86.90
17092;DHT22;8661;45.700;4.880;2023-03-23T14:49:01;20.30;87.00
17092;DHT22;8661;45.700;4.880;2023-03-23T14:51:28;20.20;86.80
17092;DHT22;8661;45.700;4.880;2023-03-23T14:53:58;20.20;86.90
17092;DHT22;8661;45.700;4.880;2023-03-23T14:56:33;20.10;86.80
17092;DHT22;8661;45.700;4.880;2023-03-23T14:59:03;20.00;86.90
17092;DHT22;8661;45.700;4.880;2023-03-23T15:01:33;20.00;87.90
17092;DHT22;8661;45.700;4.880;2023-03-23T15:04:02;20.00;88.10
17092;DHT22;8661;45.700;4.880;2023-03-23T15:06:33;20.00;88.30
17092;DHT22;8661;45.700;4.880;2023-03-23T15:09:06;19.90;88.40
17092;DHT22;8661;45.700;4.880;2023-03-23T15:11:35;20.00;88.30
17092;DHT22;8661;45.700;4.880;2023-03-23T15:14:10;20.20;87.70
17092;DHT22;8661;45.700;4.880;2023-03-23T15:16:40;20.10;87.90
17092;DHT22;8661;45.700;4.880;2023-03-23T15:19:16;20.10;87.90
17092;DHT22;8661;45.700;4.880;2023-03-23T15:21:48;20.10;88.00
17092;DHT22;8661;45.700;4.880;2023-03-23T15:24:27;20.10;88.10
17092;DHT22;8661;45.700;4.880;2023-03-23T15:27:07;20.20;88.40
17092;DHT22;8661;45.700;4.880;2023-03-23T15:29:46;20.40;88.00
17092;DHT22;8661;45.700;4.880;2023-03-23T15:32:23;20.60;88.00
17092;DHT22;8661;45.700;4.880;2023-03-23T15:34:51;20.60;87.20
17092;DHT22;8661;45.700;4.880;2023-03-23T15:37:21;20.30;87.90
17092;DHT22;8661;45.700;4.880;2023-03-23T15:39:50;20.10;88.50
17092;DHT22;8661;45.700;4.880;2023-03-23T15:42:22;20.10;88.90
17092;DHT22;8661;45.700;4.880;2023-03-23T15:47:45;19.70;90.30
17092;DHT22;8661;45.700;4.880;2023-03-23T15:50:15;19.60;90.10
17092;DHT22;8661;45.700;4.880;2023-03-23T15:52:43;19.60;90.20
17092;DHT22;8661;45.700;4.880;2023-03-23T15:55:23;19.50;90.30
17092;DHT22;8661;45.700;4.880;2023-03-23T15:57:50;19.40;90.50
17092;DHT22;8661;45.700;4.880;2023-03-23T16:00:19;19.30;90.70
17092;DHT22;8661;45.700;4.880;2023-03-23T16:02:49;19.10;90.90
17092;DHT22;8661;45.700;4.880;2023-03-23T16:05:16;19.10;91.10
17092;DHT22;8661;45.700;4.880;2023-03-23T16:07:43;19.00;91.20
17092;DHT22;8661;45.700;4.880;2023-03-23T16:10:15;19.00;91.20
17092;DHT22;8661;45.700;4.880;2023-03-23T16:12:44;19.00;91.30
17092;DHT22;8661;45.700;4.880;2023-03-23T16:15:11;19.00;91.30
17092;DHT22;8661;45.700;4.880;2023-03-23T16:17:38;18.90;91.30
17092;DHT22;8661;45.700;4.880;2023-03-23T16:20:11;18.80;91.30
17092;DHT22;8661;45.700;4.880;2023-03-23T16:22:38;18.70;91.30
17092;DHT22;8661;45.700;4.880;2023-03-23T16:25:06;18.50;91.50
17092;DHT22;8661;45.700;4.880;2023-03-23T16:27:34;18.50;91.90
17092;DHT22;8661;45.700;4.880;2023-03-23T16:30:12;18.40;91.90
17092;DHT22;8661;45.700;4.880;2023-03-23T16:32:40;18.30;91.90